Flight Track Log - Related Links

Times and Time Zones

All times are in EDT time to prevent confusion due to time zone crossing. See the CDG4711 flight status page for this flight to view local times or setup timezone preferences in your user account.

Time Position Orientation Groundspeed Altitude Reporting Facility
EDT Latitude Longitude Course Direction KTS MPH feet Rate Location/Type
Sat 10:07:00 PM 27.1261 117.3427 226° Southwest  Level Estimated
Sat 10:08:00 PM 27.0736 117.2831 225° Southwest  Level Estimated
Sat 10:09:00 PM 27.0211 117.2236 225° Southwest  Level Estimated
Sat 10:10:00 PM 26.9685 117.1642 225° Southwest  Level Estimated
Sat 10:11:00 PM 26.9159 117.1048 225° Southwest  Level Estimated
Sat 10:12:00 PM 26.8633 117.0455 225° Southwest  Level Estimated
Sat 10:13:00 PM 26.8107 116.9862 225° Southwest  Level Estimated
Sat 10:14:00 PM 26.7581 116.9270 225° Southwest  Level Estimated
Sat 10:15:00 PM 26.7054 116.8679 225° Southwest  Level Estimated
Sat 10:16:00 PM 26.6527 116.8087 225° Southwest  Level Estimated
Sat 10:17:00 PM 26.5999 116.7497 225° Southwest  Level Estimated
Sat 10:18:00 PM 26.5472 116.6907 225° Southwest  Level Estimated
Sat 10:19:00 PM 26.4944 116.6318 225° Southwest  Level Estimated
Sat 10:20:00 PM 26.4416 116.5729 225° Southwest  Level Estimated
Sat 10:21:00 PM 26.3888 116.5141 225° Southwest  Level Estimated
Sat 10:22:00 PM 26.3360 116.4553 225° Southwest  Level Estimated
Sat 10:23:00 PM 26.2831 116.3965 225° Southwest  Level Estimated
Sat 10:24:00 PM 26.2302 116.3379 225° Southwest  Level Estimated
Sat 10:25:00 PM 26.1773 116.2793 225° Southwest  Level Estimated
Sat 10:26:00 PM 26.1243 116.2207 225° Southwest  Level Estimated
Sat 10:27:00 PM 26.0714 116.1622 225° Southwest  Level Estimated
Sat 10:28:00 PM 26.0184 116.1037 225° Southwest  Level Estimated
Sat 10:29:00 PM 25.9654 116.0453 225° Southwest  Level Estimated
Sat 10:30:00 PM 25.9123 115.9870 225° Southwest  Level Estimated
Sat 10:31:00 PM 25.8593 115.9287 225° Southwest  Level Estimated
Sat 10:32:00 PM 25.8062 115.8704 225° Southwest  Level Estimated
Sat 10:33:00 PM 25.7531 115.8122 225° Southwest  Level Estimated
Sat 10:34:00 PM 25.6999 115.7541 225° Southwest  Level Estimated
Sat 10:35:00 PM 25.6468 115.6960 225° Southwest  Level Estimated
Sat 10:36:00 PM 25.5936 115.6379 225° Southwest  Level Estimated
Sat 10:37:00 PM 25.5404 115.5799 225° Southwest  Level Estimated
Sat 10:38:00 PM 25.4872 115.5220 225° Southwest  Level Estimated
Sat 10:39:00 PM 25.4340 115.4641 224° Southwest  Level Estimated
Sat 10:40:00 PM 25.3807 115.4063 224° Southwest  Level Estimated
Sat 10:41:00 PM 25.3274 115.3485 224° Southwest  Level Estimated
Sat 10:41:12 PM 25.2920 114.6400 224° Southwest 387 445 25,600  Level FlightAware ADS-B
Sat 10:41:50 PM 25.2470 114.5850 228° Southwest 385 443 25,600  Level FlightAware ADS-B
Sat 10:42:33 PM 25.2020 114.5290 228° Southwest 385 443 25,600  Level FlightAware ADS-B
Sat 10:43:21 PM 25.1540 114.4700 228° Southwest 385 443 25,600  Level FlightAware ADS-B
Sat 10:44:34 PM 25.0800 114.3790 228° Southwest 385 443 25,600  Level FlightAware ADS-B
Sat 10:45:10 PM 25.0430 114.3340 228° Southwest 385 443 25,600  Level FlightAware ADS-B
Sat 10:45:59 PM 24.9940 114.2740 228° Southwest 385 443 25,600 -1,244 Level FlightAware ADS-B
Sat 10:48:00 PM 24.8627 114.1930 209° Southwest  Level Estimated
Sat 10:49:00 PM 24.7976 114.1528 209° Southwest  Level Estimated
Sat 10:50:00 PM 24.7325 114.1128 209° Southwest  Level Estimated
Sat 10:51:00 PM 24.6673 114.0727 209° Southwest  Level Estimated
Sat 10:52:00 PM 24.6022 114.0328 209° Southwest  Level Estimated
Sat 10:53:00 PM 24.5370 113.9928 209° Southwest  Level Estimated
Sat 10:54:00 PM 24.4718 113.9529 209° Southwest  Level Estimated
Sat 10:54:39 PM 24.2460 113.7140 209° Southwest 348 400 13,800  Level FlightAware ADS-B
Sat 10:55:25 PM 24.1770 113.6890 198° South 349 402 13,800 -353 Level FlightAware ADS-B
Sat 10:56:04 PM 24.1150 113.6660 199° South 348 400 13,300 -981 Descending FlightAware ADS-B
Sat 10:57:09 PM 24.0180 113.6290 199° South 329 379 12,100 -1,029 Descending FlightAware ADS-B
Sat 10:57:49 PM 23.9600 113.6070 199° South 327 376 11,500 -929 Descending FlightAware ADS-B
Sat 10:58:33 PM 23.8990 113.5840 199° South 320 368 10,800 -494 Descending FlightAware ADS-B
Sat 10:59:14 PM 23.8420 113.5630 199° South 320 368 10,800  Level FlightAware ADS-B
Sat 10:59:57 PM 23.7790 113.5390 199° South 320 368 10,800  Level FlightAware ADS-B
Sat 11:00:37 PM 23.7230 113.5200 197° South 320 368 10,800  Level FlightAware ADS-B
Sat 11:01:17 PM 23.6660 113.5040 194° South 313 360 10,800  Level FlightAware ADS-B
Sat 11:01:57 PM 23.6100 113.4890 194° South 294 338 10,800 -146 Level FlightAware ADS-B
Sat 11:02:39 PM 23.5580 113.4750 194° South 258 297 10,600 -512 Descending FlightAware ADS-B
Sat 11:03:19 PM 23.5140 113.4630 194° South 239 275 10,100 -938 Descending FlightAware ADS-B
Sat 11:03:43 PM 23.4880 113.4560 194° South 235 270 9,600 -1,038 Descending FlightAware ADS-B
Sat 11:04:11 PM 23.4590 113.4480 194° South 229 264 9,200 -900 Descending FlightAware ADS-B
Sat 11:04:23 PM 23.4470 113.4450 193° South 230 265 9,000 -300 Descending FlightAware ADS-B
Sat 11:04:51 PM 23.4170 113.4370 194° South 231 266 9,000 -214 Level FlightAware ADS-B
Sat 11:05:19 PM 23.3890 113.4290 195° South 220 253 8,800 -500 Descending FlightAware ADS-B
Sat 11:05:39 PM 23.3690 113.4240 193° South 213 245 8,600 -625 Descending FlightAware ADS-B
Sat 11:06:07 PM 23.3430 113.4170 194° South 197 227 8,300 -643 Descending FlightAware ADS-B
Sat 11:06:35 PM 23.3180 113.4100 194° South 192 221 8,000 -737 Descending FlightAware ADS-B
Sat 11:07:04 PM 23.2940 113.4040 193° South 189 217 7,600 -1,034 Descending FlightAware ADS-B
Sat 11:07:33 PM 23.2700 113.3980 193° South 186 214 7,000 -1,200 Descending FlightAware ADS-B
Sat 11:07:49 PM 23.2560 113.3980 180° South 183 211 6,700 -1,200 Descending FlightAware ADS-B
Sat 11:08:13 PM 23.2350 113.4000 175° South 186 214 6,200 -778 Descending FlightAware ADS-B
Sat 11:08:43 PM 23.2100 113.4020 176° South 183 211 6,000 -261 Descending FlightAware ADS-B
Sat 11:08:59 PM 23.1960 113.4030 176° South 187 215 6,000 136 Level FlightAware ADS-B
Sat 11:09:27 PM 23.1720 113.4010 184° South 185 213 6,100  Climbing FlightAware ADS-B
Sat 11:09:37 PM 23.1630 113.4000 186° South 180 207 6,000 -150 Descending FlightAware ADS-B
Sat 11:10:07 PM 23.1390 113.3960 189° South 178 205 6,000  Level FlightAware ADS-B
Sat 11:10:35 PM 23.1160 113.3890 196° South 183 211 6,000  Level FlightAware ADS-B
Sat 11:10:49 PM 23.1060 113.3810 216° Southwest 187 215 6,000 -231 Level FlightAware ADS-B
Sat 11:11:01 PM 23.0990 113.3740 223° Southwest 186 214 5,900 -889 Descending FlightAware ADS-B
Sat 11:11:16 PM 23.0920 113.3620 238° Southwest 195 224 5,600 -1,091 Descending FlightAware ADS-B
Sat 11:11:45 PM 23.0970 113.3320 280° West 203 234 5,100 -947 Descending FlightAware ADS-B
Sat 11:12:13 PM 23.1020 113.3050 281° West 204 235 4,700 -977 Descending FlightAware ADS-B
Sat 11:12:28 PM 23.1050 113.2900 282° West 204 235 4,400 -955 Descending FlightAware ADS-B
Sat 11:12:57 PM 23.1170 113.2630 296° West 210 242 4,000 -732 Descending FlightAware ADS-B
Sat 11:13:09 PM 23.1270 113.2570 331° Northwest 212 244 3,900 -750 Descending FlightAware ADS-B
Sat 11:13:37 PM 23.1540 113.2510 348° North 211 243 3,500 -706 Descending FlightAware ADS-B
Sat 11:14:17 PM 23.1920 113.2560 North 207 238 3,100 -353 Descending FlightAware ADS-B
Sat 11:14:45 PM 23.2170 113.2620 12° North 194 223 3,100 -273 Level FlightAware ADS-B
Sat 11:15:01 PM 23.2320 113.2670 17° North 196 226 2,900 -955 Descending FlightAware ADS-B
Sat 11:15:29 PM 23.2560 113.2730 13° North 186 214 2,400 -857 Descending FlightAware ADS-B
Sat 11:15:57 PM 23.2780 113.2790 14° North 167 192 2,100 -778 Descending FlightAware ADS-B
Sat 11:16:23 PM 23.2970 113.2840 14° North 160 184 1,700 -878 Descending FlightAware ADS-B
Sat 11:16:38 PM 23.3070 113.2870 15° North 159 183 1,500 -800 Descending FlightAware ADS-B
Sat 11:19:00 PM 23.3924 113.2988 North  Level Estimated
Sat 11:20:00 PM 23.3924 113.2988 223° Southwest  Level Estimated
Sat 11:21:00 PM 23.3924 113.2988 223° Southwest  Level Estimated
Sat 11:22:00 PM 23.3924 113.2988 223° Southwest  Level Estimated
Sat 11:23:00 PM 23.3924 113.2988 223° Southwest  Level Estimated
Sat 11:24:00 PM 23.3924 113.2988 223° Southwest  Level Estimated
Sat 11:25:00 PM 23.3924 113.2988 223° Southwest  Level Estimated
Sat 11:26:00 PM 23.3924 113.2988 223° Southwest  Level Estimated
Sat 11:27:00 PM 23.3924 113.2988 223° Southwest  Level Estimated
Sat 11:28:00 PM 23.3924 113.2988 223° Southwest  Level Estimated

Login

Don't have an account? Register now (free) for customized features, flight alerts, and more!